18.0°F
Current conditions from King Hill
Updated every 5 minutes
 
  Friday December 19, 2014

Station Historical Data
Daily Summary for April 2, 2012 Units:  Metric    English   Both
« Previous Day
Next Day »
Daily Weekly Monthly Yearly Custom
  High: Low: Average:
Temperature: 7.4 °C -1.6 °C 2.3 °C
Dew Point: 0.3 °C -11.5 °C -4.8 °C
Humidity: 93% 31% 64%
Wind Speed: 22.5km/h 0km/h 7.1km/h
Wind Gust: 38.6km/h - -
Wind- - West
Pressure: 1010.4 hPa 1003.9 hPa -
Precipitation: 0.5 mm    
Historical Graphs
 
 
Tabular Data for April 2, 2012
Time Temperature Dew Point Pressure Wind Wind Speed Wind Gust Humidity Daily Rainfall
00:00 1.3 °C -1.6 °C 1003.9 hPa Calm   4.8 km/h 81% 0 mm
00:05 1.3 °C -1.4 °C 1003.9 hPa Calm   4.8 km/h 82% 0 mm
00:15 1.3 °C -1.4 °C 1003.9 hPa Calm   3.2 km/h 82% 0 mm
00:19 1.3 °C -1.4 °C 1003.9 hPa Calm   3.2 km/h 82% 0 mm
00:25 1.2 °C -1.5 °C 1003.9 hPa Calm   3.2 km/h 82% 0 mm
00:29 1.2 °C -1.6 °C 1003.9 hPa Calm   3.2 km/h 82% 0 mm
00:35 1.2 °C -1.4 °C 1003.9 hPa Calm   3.2 km/h 83% 0 mm
00:39 1.1 °C -1.4 °C 1003.9 hPa Calm   1.6 km/h 83% 0 mm
00:45 1.1 °C -1.5 °C 1003.9 hPa Calm   6.4 km/h 83% 0 mm
00:50 1 °C -1.4 °C 1003.9 hPa Calm   6.4 km/h 84% 0 mm
00:59 0.9 °C -1.5 °C 1004.3 hPa Calm   4.8 km/h 84% 0 mm
01:05 0.8 °C -1.6 °C 1004.3 hPa Calm   8 km/h 84% 0 mm
01:09 0.8 °C -1.4 °C 1004.3 hPa Calm   8 km/h 85% 0 mm
01:14 0.8 °C -1.4 °C 1004.3 hPa Calm   3.2 km/h 85% 0 mm
01:19 0.7 °C -1.5 °C 1004.3 hPa Calm   3.2 km/h 85% 0 mm
01:25 0.7 °C -1.5 °C 1004.3 hPa Calm   1.6 km/h 85% 0 mm
01:35 0.7 °C -1.4 °C 1004.3 hPa Calm   6.4 km/h 86% 0 mm
01:40 0.7 °C -1.4 °C 1004.3 hPa Calm   1.6 km/h 86% 0 mm
01:49 0.6 °C -1.5 °C 1004.3 hPa Calm   1.6 km/h 86% 0 mm
01:54 0.6 °C -1.3 °C 1004.3 hPa Calm   1.6 km/h 87% 0 mm
01:59 0.6 °C -1.3 °C 1004.3 hPa Calm   1.6 km/h 87% 0 mm
02:04 0.5 °C -1.4 °C 1004.3 hPa Calm     87% 0 mm
02:09 0.5 °C -1.4 °C 1004.3 hPa Calm     87% 0 mm
02:15 0.4 °C -1.4 °C 1004.3 hPa Calm     87% 0 mm
02:19 0.4 °C -1.4 °C 1004.3 hPa Calm     87% 0 mm
02:25 0.4 °C -1.3 °C 1004.6 hPa Calm   3.2 km/h 88% 0 mm
02:30 0.4 °C -1.3 °C 1004.3 hPa Calm   3.2 km/h 88% 0 mm
02:35 0.4 °C -1.3 °C 1004.3 hPa Calm   3.2 km/h 88% 0 mm
02:40 0.4 °C -1.3 °C 1004.3 hPa Calm   3.2 km/h 88% 0 mm
02:45 0.4 °C -1.3 °C 1004.6 hPa Calm   1.6 km/h 88% 0 mm
02:55 0.3 °C -1.4 °C 1004.6 hPa Calm   3.2 km/h 88% 0 mm
02:59 0.3 °C -1.5 °C 1004.6 hPa Calm   4.8 km/h 88% 0 mm
03:04 0.3 °C -1.4 °C 1004.6 hPa NNW 1.6 km/h 6.4 km/h 88% 0 mm
03:09 0.4 °C -1.2 °C 1004.6 hPa Calm   6.4 km/h 89% 0 mm
03:15 0.4 °C -1.2 °C 1004.6 hPa Calm   4.8 km/h 89% 0 mm
03:19 0.4 °C -1.2 °C 1004.6 hPa Calm   4.8 km/h 89% 0 mm
03:25 0.4 °C -1.2 °C 1005 hPa Calm   4.8 km/h 89% 0 mm
03:30 0.4 °C -1.2 °C 1004.6 hPa Calm   4.8 km/h 89% 0 mm
03:40 0.4 °C -1.2 °C 1005 hPa NNW 1.6 km/h 6.4 km/h 89% 0 mm
03:45 0.5 °C -1.1 °C 1005 hPa Calm   6.4 km/h 89% 0 mm
03:55 0.5 °C -0.9 °C 1005 hPa Calm   6.4 km/h 90% 0 mm
03:59 0.5 °C -0.9 °C 1005 hPa Calm   6.4 km/h 90% 0 mm
04:04 0.5 °C -0.9 °C 1005.3 hPa NNE 1.6 km/h 9.7 km/h 90% 0 mm
04:09 0.5 °C -0.9 °C 1005.3 hPa Calm   9.7 km/h 90% 0 mm
04:15 0.5 °C -0.9 °C 1005.3 hPa North 3.2 km/h 9.7 km/h 90% 0 mm
04:19 0.5 °C -0.9 °C 1005.3 hPa North 1.6 km/h 9.7 km/h 90% 0 mm
04:24 0.4 °C -1 °C 1005.3 hPa Calm   6.4 km/h 90% 0 mm
04:29 0.4 °C -1 °C 1005.3 hPa Calm   4.8 km/h 90% 0 mm
04:34 0.4 °C -1 °C 1005.3 hPa Calm   11.3 km/h 90% 0 mm
04:40 0.4 °C -1 °C 1005.6 hPa Calm   11.3 km/h 90% 0 mm
04:45 0.4 °C -1 °C 1005.6 hPa NNE 1.6 km/h 8 km/h 90% 0 mm
04:49 0.4 °C -1 °C 1005.6 hPa North 3.2 km/h 9.7 km/h 90% 0 mm
04:54 0.4 °C -0.9 °C 1005.6 hPa NNE 1.6 km/h 11.3 km/h 91% 0 mm
04:59 0.3 °C -1 °C 1005.6 hPa Calm   11.3 km/h 91% 0 mm
05:05 0.3 °C -1 °C 1005.6 hPa Calm   9.7 km/h 91% 0 mm
05:10 0.2 °C -1.1 °C 1006 hPa Calm   11.3 km/h 91% 0 mm
05:14 0.2 °C -1.3 °C 1006 hPa Calm   11.3 km/h 90% 0 mm
05:19 0.1 °C -1.4 °C 1006 hPa Calm   11.3 km/h 90% 0 mm
05:25 0.1 °C -1.4 °C 1006 hPa Calm   4.8 km/h 90% 0 mm
05:29 -0.1 °C -1.6 °C 1006 hPa NNE 3.2 km/h 6.4 km/h 90% 0 mm
05:34 -0.2 °C -1.7 °C 1006 hPa Calm   6.4 km/h 90% 0 mm
05:40 -0.3 °C -1.8 °C 1006 hPa Calm   4.8 km/h 90% 0 mm
05:44 -0.5 °C -1.9 °C 1006.3 hPa Calm   1.6 km/h 90% 0 mm
05:50 -0.6 °C -2 °C 1006.3 hPa Calm   3.2 km/h 90% 0 mm
05:54 -0.8 °C -2.3 °C 1006.3 hPa Calm   3.2 km/h 90% 0 mm
05:59 -1.1 °C -2.5 °C 1006.3 hPa Calm   3.2 km/h 90% 0 mm
06:04 -1.2 °C -2.7 °C 1006.3 hPa Calm   3.2 km/h 90% 0 mm
06:10 -1.3 °C -2.7 °C 1006.7 hPa NNE 1.6 km/h 6.4 km/h 90% 0 mm
06:14 -1.2 °C -2.7 °C 1006.7 hPa NNE 1.6 km/h 6.4 km/h 90% 0 mm
06:19 -1.2 °C -2.7 °C 1006.7 hPa Calm   6.4 km/h 90% 0 mm
06:24 -1.3 °C -2.7 °C 1006.7 hPa Calm     90% 0 mm
06:29 -1.4 °C -2.8 °C 1006.7 hPa Calm   3.2 km/h 90% 0 mm
06:34 -1.4 °C -2.9 °C 1007 hPa Calm   3.2 km/h 90% 0 mm
06:40 -1.6 °C -3 °C 1007 hPa Calm   3.2 km/h 90% 0 mm
06:45 -1.6 °C -3.1 °C 1007 hPa Calm     90% 0 mm
06:54 -1.3 °C -2.6 °C 1007.3 hPa Calm   6.4 km/h 91% 0 mm
06:59 -1.1 °C -2.4 °C 1007.3 hPa North 1.6 km/h 9.7 km/h 91% 0 mm
07:04 -0.9 °C -2.1 °C 1007.3 hPa Calm   9.7 km/h 92% 0 mm
07:09 -0.8 °C -1.9 °C 1007.7 hPa NNE 3.2 km/h 8 km/h 92% 0 mm
07:14 -0.7 °C -1.8 °C 1007.7 hPa Calm   8 km/h 92% 0 mm
07:19 -0.6 °C -1.7 °C 1007.7 hPa Calm   6.4 km/h 92% 0 mm
07:25 -0.6 °C -1.7 °C 1008 hPa Calm   4.8 km/h 92% 0 mm
07:29 -0.5 °C -1.7 °C 1008 hPa North 1.6 km/h 6.4 km/h 92% 0 mm
07:34 -0.4 °C -1.6 °C 1008 hPa Calm   6.4 km/h 92% 0 mm
07:40 -0.4 °C -1.6 °C 1008 hPa NNE 1.6 km/h 6.4 km/h 92% 0 mm
07:49 -0.3 °C -1.5 °C 1008 hPa Calm   6.4 km/h 92% 0 mm
07:54 -0.3 °C -1.4 °C 1008 hPa North 1.6 km/h 8 km/h 92% 0 mm
07:59 -0.3 °C -1.3 °C 1008.4 hPa Calm   8 km/h 93% 0 mm
08:05 -0.3 °C -1.4 °C 1008.4 hPa North 1.6 km/h 6.4 km/h 92% 0 mm
08:14 -0.3 °C -1.3 °C 1008.4 hPa NNW 4.8 km/h 17.7 km/h 93% 0 mm
08:19 -0.3 °C -1.3 °C 1008.4 hPa Calm   17.7 km/h 93% 0 mm
08:25 -0.3 °C -1.3 °C 1008.4 hPa NNW 1.6 km/h 6.4 km/h 93% 0 mm
08:29 -0.2 °C -1.2 °C 1008.7 hPa NNE 1.6 km/h 6.4 km/h 93% 0 mm
08:35 -0.2 °C -1.2 °C 1008.7 hPa NNW 4.8 km/h 16.1 km/h 93% 0 mm
08:44 -0.2 °C -1.2 °C 1008.7 hPa North 1.6 km/h 12.9 km/h 93% 0 mm
08:49 -0.1 °C -1.1 °C 1008.7 hPa Calm   14.5 km/h 93% 0 mm
08:54 0 °C -1 °C 1008.7 hPa North 3.2 km/h 14.5 km/h 93% 0 mm
08:59 0 °C -1 °C 1008.7 hPa Calm   11.3 km/h 93% 0 mm
09:04 -0.1 °C -1.1 °C 1008.7 hPa NW 6.4 km/h 11.3 km/h 93% 0 mm
09:09 -0.2 °C -1.2 °C 1009 hPa Calm   11.3 km/h 93% 0 mm
09:14 0 °C -1 °C 1009 hPa Calm   6.4 km/h 93% 0 mm
09:19 0.2 °C -0.8 °C 1009 hPa NNW 1.6 km/h 9.7 km/h 93% 0.3 mm
09:24 0.7 °C -0.3 °C 1009 hPa North 1.6 km/h 9.7 km/h 93% 0.3 mm
09:29 1.3 °C 0.3 °C 1009 hPa North 1.6 km/h 9.7 km/h 93% 0.3 mm
09:34 1.3 °C 0.2 °C 1009 hPa North 1.6 km/h 8 km/h 92% 0.3 mm
09:39 1.1 °C -0.7 °C 1009 hPa NNW 9.7 km/h 16.1 km/h 88% 0.5 mm
09:44 0.7 °C -1.6 °C 1009 hPa NW 1.6 km/h 16.1 km/h 85% 0.5 mm
09:49 0.8 °C -1.3 °C 1009 hPa NW 3.2 km/h 14.5 km/h 86% 0.5 mm
09:54 1.5 °C -0.6 °C 1009 hPa NNW 3.2 km/h 11.3 km/h 86% 0.5 mm
09:59 2.1 °C -0.5 °C 1009 hPa North 1.6 km/h 16.1 km/h 83% 0.5 mm
10:04 2.2 °C -0.9 °C 1009 hPa NW 1.6 km/h 16.1 km/h 80% 0.5 mm
10:09 2.4 °C -0.7 °C 1009.4 hPa North 1.6 km/h 11.3 km/h 80% 0.5 mm
10:14 2.4 °C -1.2 °C 1009 hPa North 3.2 km/h 11.3 km/h 77% 0.5 mm
10:19 2.3 °C -1.5 °C 1009 hPa NNE 1.6 km/h 14.5 km/h 76% 0.5 mm
10:24 2.6 °C -1.1 °C 1009 hPa NW 6.4 km/h 14.5 km/h 77% 0.5 mm
10:30 2.2 °C -1.9 °C 1009 hPa NW 9.7 km/h 16.1 km/h 74% 0.5 mm
10:35 2.2 °C -1.2 °C 1009 hPa North 1.6 km/h 16.1 km/h 78% 0.5 mm
10:44 3.8 °C -0.4 °C 1009 hPa North 4.8 km/h 19.3 km/h 74% 0.5 mm
10:49 3.8 °C -2.2 °C 1009 hPa North 4.8 km/h 19.3 km/h 65% 0.5 mm
10:55 3.8 °C -2.2 °C 1009 hPa North 3.2 km/h 16.1 km/h 65% 0.5 mm
11:04 4.3 °C -2.3 °C 1009 hPa NNE 8 km/h 24.1 km/h 62% 0.5 mm
11:09 4.4 °C -2.7 °C 1009 hPa NW 8 km/h 16.1 km/h 60% 0.5 mm
11:14 4.5 °C -2.8 °C 1009 hPa North 8 km/h 17.7 km/h 59% 0.5 mm
11:19 4.3 °C -3 °C 1009 hPa NW 8 km/h 20.9 km/h 59% 0.5 mm
11:24 4.5 °C -2.8 °C 1009 hPa NNW 6.4 km/h 20.9 km/h 59% 0.5 mm
11:29 4.8 °C -3.2 °C 1009 hPa WNW 9.7 km/h 17.7 km/h 56% 0.5 mm
11:35 4.3 °C -3.1 °C 1008.7 hPa NNW 6.4 km/h 25.7 km/h 59% 0.5 mm
11:40 4.4 °C -3.6 °C 1008.7 hPa NW 9.7 km/h 25.7 km/h 56% 0.5 mm
11:45 4.2 °C -3.8 °C 1008.7 hPa NW 19.3 km/h 33.8 km/h 56% 0.5 mm
11:55 4.9 °C -2.9 °C 1009 hPa NNW 12.9 km/h 29 km/h 57% 0.5 mm
12:04 4.9 °C -4.3 °C 1008.7 hPa NW 19.3 km/h 30.6 km/h 51% 0.5 mm
12:09 4.9 °C -4.3 °C 1008.7 hPa NW 12.9 km/h 30.6 km/h 51% 0.5 mm
12:14 5.2 °C -4.1 °C 1008.7 hPa NNW 9.7 km/h 24.1 km/h 51% 0.5 mm
12:19 5.4 °C -3.4 °C 1008.7 hPa NW 11.3 km/h 25.7 km/h 53% 0.5 mm
12:25 5.5 °C -3.8 °C 1008.4 hPa NNW 12.9 km/h 27.4 km/h 51% 0.5 mm
12:35 5.9 °C -4 °C 1008.7 hPa NW 8 km/h 25.7 km/h 49% 0.5 mm
12:45 6 °C -3.9 °C 1008.4 hPa NNW 9.7 km/h 29 km/h 49% 0.5 mm
12:54 6.1 °C -4.7 °C 1008.4 hPa NW 8 km/h 27.4 km/h 46% 0.5 mm
12:59 6.2 °C -4.9 °C 1008.4 hPa NW 14.5 km/h 29 km/h 45% 0.5 mm
13:05 6.2 °C -4.3 °C 1008.4 hPa North 8 km/h 29 km/h 47% 0.5 mm
13:14 6.7 °C -5.1 °C 1008.4 hPa NW 12.9 km/h 24.1 km/h 43% 0.5 mm
13:20 6.6 °C -4.2 °C 1008.4 hPa NNW 11.3 km/h 24.1 km/h 46% 0.5 mm
13:30 6 °C -5.9 °C 1008.4 hPa NW 11.3 km/h 27.4 km/h 42% 0.5 mm
13:40 6.8 °C -4.9 °C 1008.4 hPa NNW 4.8 km/h 20.9 km/h 43% 0.5 mm
13:50 6.7 °C -6 °C 1008.4 hPa NNW 6.4 km/h 27.4 km/h 40% 0.5 mm
14:00 6.8 °C -6.6 °C 1008 hPa NNW 11.3 km/h 33.8 km/h 38% 0.5 mm
14:10 7.3 °C -5.7 °C 1008 hPa NNW 8 km/h 19.3 km/h 39% 0.5 mm
14:19 7.3 °C -6.4 °C 1008 hPa NNW 14.5 km/h 25.7 km/h 37% 0.5 mm
14:24 6.7 °C -7 °C 1008 hPa NNW 14.5 km/h 30.6 km/h 37% 0.5 mm
14:30 6.8 °C -6.5 °C 1008 hPa NNW 6.4 km/h 30.6 km/h 38% 0.5 mm
14:35 7.2 °C -6.9 °C 1008 hPa NNW 9.7 km/h 27.4 km/h 36% 0.5 mm
14:44 6.6 °C -7.4 °C 1008 hPa NNW 12.9 km/h 30.6 km/h 36% 0.5 mm
14:49 6.8 °C -6.9 °C 1008 hPa NNW 11.3 km/h 30.6 km/h 37% 0.5 mm
14:55 6.5 °C -7.9 °C 1008.4 hPa NNW 16.1 km/h 37 km/h 35% 0.5 mm
15:05 6.4 °C -7.6 °C 1008 hPa NNW 9.7 km/h 37 km/h 36% 0.5 mm
15:15 6.9 °C -6.4 °C 1008.4 hPa North 11.3 km/h 32.2 km/h 38% 0.5 mm
15:24 6.7 °C -8.1 °C 1008.4 hPa NW 22.5 km/h 33.8 km/h 34% 0.5 mm
15:29 6.3 °C -7.7 °C 1008.4 hPa NNW 9.7 km/h 35.4 km/h 36% 0.5 mm
15:35 6.4 °C -7.2 °C 1008.4 hPa NNE 11.3 km/h 35.4 km/h 37% 0.5 mm
15:44 6.4 °C -8.3 °C 1008.4 hPa NNW 19.3 km/h 38.6 km/h 34% 0.5 mm
15:49 6.4 °C -7.2 °C 1008.4 hPa NNW 14.5 km/h 38.6 km/h 37% 0.5 mm
15:54 6.4 °C -6.5 °C 1008.4 hPa North 8 km/h 33.8 km/h 39% 0.5 mm
16:04 6.8 °C -6.9 °C 1008.7 hPa North 11.3 km/h 29 km/h 37% 0.5 mm
16:09 6.9 °C -7.8 °C 1008.7 hPa North 11.3 km/h 29 km/h 34% 0.5 mm
16:14 6.8 °C -7.6 °C 1008.7 hPa North 11.3 km/h 29 km/h 35% 0.5 mm
16:19 6.8 °C -7.6 °C 1008.7 hPa North 9.7 km/h 30.6 km/h 35% 0.5 mm
16:25 6.8 °C -8 °C 1008.7 hPa North 11.3 km/h 30.6 km/h 34% 0.5 mm
16:30 6.8 °C -7.6 °C 1008.7 hPa North 12.9 km/h 29 km/h 35% 0.5 mm
16:39 6.7 °C -7.7 °C 1008.7 hPa NNW 11.3 km/h 27.4 km/h 35% 0.5 mm
16:44 6.9 °C -7.5 °C 1009 hPa NNW 11.3 km/h 27.4 km/h 35% 0.5 mm
16:49 6.8 °C -7.9 °C 1008.7 hPa NNW 9.7 km/h 24.1 km/h 34% 0.5 mm
16:55 6.8 °C -8.3 °C 1009 hPa NNW 16.1 km/h 33.8 km/h 33% 0.5 mm
17:04 7.2 °C -8.4 °C 1009 hPa NW 12.9 km/h 24.1 km/h 32% 0.5 mm
17:09 7.2 °C -7.7 °C 1009 hPa NNW 6.4 km/h 35.4 km/h 34% 0.5 mm
17:14 7 °C -8.2 °C 1008.7 hPa NW 14.5 km/h 35.4 km/h 33% 0.5 mm
17:19 7.2 °C -7.6 °C 1008.7 hPa North 8 km/h 30.6 km/h 34% 0.5 mm
17:24 7.4 °C -8.2 °C 1009 hPa NW 9.7 km/h 25.7 km/h 32% 0.5 mm
17:30 6.8 °C -8.4 °C 1009 hPa NW 11.3 km/h 35.4 km/h 33% 0.5 mm
17:40 6.4 °C -9.5 °C 1009 hPa NW 16.1 km/h 32.2 km/h 31% 0.5 mm
17:49 6.4 °C -9.1 °C 1009 hPa NNW 12.9 km/h 27.4 km/h 32% 0.5 mm
17:55 6.4 °C -8.3 °C 1008.7 hPa North 11.3 km/h 27.4 km/h 34% 0.5 mm
18:00 6.4 °C -8.7 °C 1009 hPa North 9.7 km/h 24.1 km/h 33% 0.5 mm
18:10 6.4 °C -9.1 °C 1009 hPa NNW 8 km/h 25.7 km/h 32% 0.5 mm
18:19 6.1 °C -9 °C 1009 hPa NNW 4.8 km/h 30.6 km/h 33% 0.5 mm
18:25 6.1 °C -9.4 °C 1009.4 hPa NNW 6.4 km/h 20.9 km/h 32% 0.5 mm
18:34 5.8 °C -10.1 °C 1009 hPa NW 4.8 km/h 22.5 km/h 31% 0.5 mm
18:40 5.7 °C -10.1 °C 1009 hPa North 8 km/h 20.9 km/h 31% 0.5 mm
18:50 5.3 °C -10.5 °C 1009 hPa NW 6.4 km/h 30.6 km/h 31% 0.5 mm
18:55 5.1 °C -10.7 °C 1009.4 hPa NW 6.4 km/h 30.6 km/h 31% 0.5 mm
19:04 4.7 °C -11 °C 1009.4 hPa NNW 9.7 km/h 24.1 km/h 31% 0.5 mm
19:09 4.4 °C -11.2 °C 1009.4 hPa NNW 8 km/h 19.3 km/h 31% 0.5 mm
19:14 4.2 °C -11.1 °C 1009.4 hPa NW 3.2 km/h 19.3 km/h 32% 0.5 mm
19:19 3.9 °C -11.3 °C 1009.4 hPa NW 6.4 km/h 16.1 km/h 32% 0.5 mm
19:24 3.7 °C -11.1 °C 1009.4 hPa NW 9.7 km/h 16.1 km/h 33% 0.5 mm
19:29 3.6 °C -11.2 °C 1009.4 hPa NNW 4.8 km/h 16.1 km/h 33% 0.5 mm
19:34 3.4 °C -10.9 °C 1009.4 hPa NNW 1.6 km/h 14.5 km/h 34% 0.5 mm
19:39 3.3 °C -10.7 °C 1009.7 hPa North 1.6 km/h 14.5 km/h 35% 0.5 mm
19:45 3.1 °C -11.2 °C 1009.7 hPa NNW 1.6 km/h 12.9 km/h 34% 0.5 mm
19:55 2.8 °C -10.8 °C 1009.7 hPa North 1.6 km/h 11.3 km/h 36% 0.5 mm
20:04 2.6 °C -11.4 °C 1009.7 hPa Calm   11.3 km/h 35% 0.5 mm
20:09 2.4 °C -11.5 °C 1009.7 hPa NNW 1.6 km/h 9.7 km/h 35% 0.5 mm
20:14 2.3 °C -10.9 °C 1009.7 hPa Calm   11.3 km/h 37% 0.5 mm
20:19 2.2 °C -11.3 °C 1009.7 hPa Calm   11.3 km/h 36% 0.5 mm
20:24 2.1 °C -11.1 °C 1009.7 hPa NNW 1.6 km/h 8 km/h 37% 0.5 mm
20:29 2 °C -10.8 °C 1009.7 hPa NNW 1.6 km/h 8 km/h 38% 0.5 mm
20:35 2.1 °C -11.1 °C 1009.7 hPa NNW 1.6 km/h 12.9 km/h 37% 0.5 mm
20:44 1.9 °C -11.3 °C 1009.7 hPa North 1.6 km/h 9.7 km/h 37% 0.5 mm
20:49 1.7 °C -11.2 °C 1009.7 hPa NNW 1.6 km/h 9.7 km/h 38% 0.5 mm
20:54 1.6 °C -11.2 °C 1009.7 hPa Calm   9.7 km/h 38% 0.5 mm
20:59 1.4 °C -11.1 °C 1010 hPa Calm   6.4 km/h 39% 0.5 mm
21:04 1.3 °C -10.8 °C 1010 hPa Calm   6.4 km/h 40% 0.5 mm
21:09 1.3 °C -11.1 °C 1010 hPa NNW 1.6 km/h 6.4 km/h 39% 0.5 mm
21:14 1.3 °C -11.1 °C 1010 hPa Calm   8 km/h 39% 0.5 mm
21:19 1.4 °C -11.3 °C 1010 hPa Calm   11.3 km/h 38% 0.5 mm
21:25 1.6 °C -10.9 °C 1010 hPa Calm   11.3 km/h 39% 0.5 mm
21:34 1.3 °C -10.8 °C 1010 hPa Calm   8 km/h 40% 0.5 mm
21:40 1.2 °C -10.9 °C 1010 hPa Calm   8 km/h 40% 0.5 mm
21:49 0.9 °C -10.2 °C 1010 hPa Calm   6.4 km/h 43% 0.5 mm
21:54 0.8 °C -9.8 °C 1010 hPa Calm   6.4 km/h 45% 0.5 mm
21:59 0.7 °C -10.4 °C 1010 hPa Calm   3.2 km/h 43% 0.5 mm
22:04 0.7 °C -9.9 °C 1010 hPa Calm   6.4 km/h 45% 0.5 mm
22:09 0.8 °C -10.1 °C 1010 hPa Calm   6.4 km/h 44% 0.5 mm
22:14 0.8 °C -10.1 °C 1010 hPa Calm   6.4 km/h 44% 0.5 mm
22:19 0.8 °C -9.8 °C 1010 hPa Calm     45% 0.5 mm
22:25 0.8 °C -9.6 °C 1010 hPa Calm   1.6 km/h 46% 0.5 mm
22:35 0.7 °C -9.9 °C 1010 hPa Calm   4.8 km/h 45% 0.5 mm
22:45 0.6 °C -10 °C 1010 hPa NNE 1.6 km/h 6.4 km/h 45% 0.5 mm
22:55 0.7 °C -9.6 °C 1010.4 hPa NNE 1.6 km/h 8 km/h 46% 0.5 mm
23:04 0.6 °C -10 °C 1010.4 hPa Calm   1.6 km/h 45% 0.5 mm
23:09 0.6 °C -10.3 °C 1010.4 hPa Calm   6.4 km/h 44% 0.5 mm
23:14 0.6 °C -9.9 °C 1010.4 hPa Calm   12.9 km/h 45% 0.5 mm
23:19 0.4 °C -9.8 °C 1010.4 hPa Calm   12.9 km/h 46% 0.5 mm
23:24 0.3 °C -9.9 °C 1010.4 hPa Calm   3.2 km/h 46% 0.5 mm
23:30 0.3 °C -10 °C 1010 hPa NNE 1.6 km/h 8 km/h 46% 0.5 mm
23:39 0.2 °C -9.8 °C 1010.4 hPa Calm   3.2 km/h 47% 0.5 mm
23:44 0.1 °C -9.3 °C 1010 hPa Calm   4.8 km/h 49% 0.5 mm
23:49 0 °C -9.7 °C 1010.4 hPa Calm   4.8 km/h 48% 0.5 mm
23:54 -0.1 °C -10.1 °C 1010.4 hPa Calm     47% 0.5 mm
Westford Weather
Compliments of Weather Underground

 
 
Current Radar Loop:

Copyright © WestfordWeather.net 2007-2014. All rights reserved.